sensor_id;sensor_type;location;lat;lon;timestamp;P1;durP1;ratioP1;P2;durP2;ratioP2
45642;SDS011;31358;46.008;11.144;2023-03-20T00:00:13;37.42;;;21.33;;
45642;SDS011;31358;46.008;11.144;2023-03-20T00:02:44;35.22;;;21.38;;
45642;SDS011;31358;46.008;11.144;2023-03-20T00:05:20;34.45;;;20.63;;
45642;SDS011;31358;46.008;11.144;2023-03-20T00:07:47;36.45;;;21.27;;
45642;SDS011;31358;46.008;11.144;2023-03-20T00:10:15;35.03;;;20.88;;
45642;SDS011;31358;46.008;11.144;2023-03-20T00:12:42;30.55;;;20.45;;
45642;SDS011;31358;46.008;11.144;2023-03-20T00:15:16;33.30;;;20.33;;
45642;SDS011;31358;46.008;11.144;2023-03-20T00:17:59;30.73;;;18.85;;
45642;SDS011;31358;46.008;11.144;2023-03-20T00:20:25;33.97;;;21.92;;
45642;SDS011;31358;46.008;11.144;2023-03-20T00:22:51;32.00;;;20.88;;
45642;SDS011;31358;46.008;11.144;2023-03-20T00:25:21;32.45;;;20.85;;
45642;SDS011;31358;46.008;11.144;2023-03-20T00:27:48;31.88;;;20.33;;
45642;SDS011;31358;46.008;11.144;2023-03-20T00:30:22;34.75;;;20.75;;
45642;SDS011;31358;46.008;11.144;2023-03-20T00:32:53;32.30;;;21.15;;
45642;SDS011;31358;46.008;11.144;2023-03-20T00:35:22;32.70;;;21.58;;
45642;SDS011;31358;46.008;11.144;2023-03-20T00:37:50;35.28;;;20.67;;
45642;SDS011;31358;46.008;11.144;2023-03-20T00:40:17;30.00;;;20.02;;
45642;SDS011;31358;46.008;11.144;2023-03-20T00:42:44;35.85;;;21.55;;
45642;SDS011;31358;46.008;11.144;2023-03-20T00:45:18;29.48;;;19.95;;
45642;SDS011;31358;46.008;11.144;2023-03-20T00:47:46;36.58;;;21.17;;
45642;SDS011;31358;46.008;11.144;2023-03-20T00:50:17;31.38;;;21.40;;
45642;SDS011;31358;46.008;11.144;2023-03-20T00:52:46;30.85;;;21.70;;
45642;SDS011;31358;46.008;11.144;2023-03-20T00:55:12;38.55;;;21.52;;
45642;SDS011;31358;46.008;11.144;2023-03-20T00:57:42;34.40;;;21.85;;
45642;SDS011;31358;46.008;11.144;2023-03-20T01:00:32;32.10;;;20.40;;
45642;SDS011;31358;46.008;11.144;2023-03-20T01:03:09;33.58;;;21.23;;
45642;SDS011;31358;46.008;11.144;2023-03-20T01:05:37;35.80;;;22.52;;
45642;SDS011;31358;46.008;11.144;2023-03-20T01:08:05;33.35;;;22.25;;
45642;SDS011;31358;46.008;11.144;2023-03-20T01:10:36;32.40;;;22.20;;
45642;SDS011;31358;46.008;11.144;2023-03-20T01:13:01;30.55;;;21.13;;
45642;SDS011;31358;46.008;11.144;2023-03-20T01:15:31;34.65;;;21.80;;
45642;SDS011;31358;46.008;11.144;2023-03-20T01:17:58;30.58;;;20.40;;
45642;SDS011;31358;46.008;11.144;2023-03-20T01:20:25;34.03;;;21.02;;
45642;SDS011;31358;46.008;11.144;2023-03-20T01:22:52;30.02;;;21.27;;
45642;SDS011;31358;46.008;11.144;2023-03-20T01:25:18;33.97;;;20.40;;
45642;SDS011;31358;46.008;11.144;2023-03-20T01:27:49;34.72;;;20.80;;
45642;SDS011;31358;46.008;11.144;2023-03-20T01:30:23;33.13;;;22.45;;
45642;SDS011;31358;46.008;11.144;2023-03-20T01:32:51;34.92;;;22.30;;
45642;SDS011;31358;46.008;11.144;2023-03-20T01:35:19;33.85;;;20.77;;
45642;SDS011;31358;46.008;11.144;2023-03-20T01:37:46;32.88;;;21.65;;
45642;SDS011;31358;46.008;11.144;2023-03-20T01:40:20;32.70;;;20.95;;
45642;SDS011;31358;46.008;11.144;2023-03-20T01:42:52;35.05;;;21.33;;
45642;SDS011;31358;46.008;11.144;2023-03-20T01:45:19;35.53;;;22.00;;
45642;SDS011;31358;46.008;11.144;2023-03-20T01:47:48;35.88;;;22.38;;
45642;SDS011;31358;46.008;11.144;2023-03-20T01:50:21;34.35;;;21.95;;
45642;SDS011;31358;46.008;11.144;2023-03-20T01:52:55;33.67;;;20.90;;
45642;SDS011;31358;46.008;11.144;2023-03-20T01:55:26;33.92;;;23.23;;
45642;SDS011;31358;46.008;11.144;2023-03-20T01:57:52;34.42;;;23.05;;
45642;SDS011;31358;46.008;11.144;2023-03-20T02:00:21;33.70;;;21.92;;
45642;SDS011;31358;46.008;11.144;2023-03-20T02:02:47;36.10;;;22.30;;
45642;SDS011;31358;46.008;11.144;2023-03-20T02:05:14;36.10;;;22.50;;
45642;SDS011;31358;46.008;11.144;2023-03-20T02:07:44;34.00;;;21.60;;
45642;SDS011;31358;46.008;11.144;2023-03-20T02:10:15;33.95;;;21.42;;
45642;SDS011;31358;46.008;11.144;2023-03-20T02:12:43;32.70;;;21.00;;
45642;SDS011;31358;46.008;11.144;2023-03-20T02:15:09;38.08;;;21.70;;
45642;SDS011;31358;46.008;11.144;2023-03-20T02:17:38;30.10;;;20.85;;
45642;SDS011;31358;46.008;11.144;2023-03-20T02:40:09;33.80;;;22.15;;
45642;SDS011;31358;46.008;11.144;2023-03-20T02:43:01;35.78;;;23.77;;
45642;SDS011;31358;46.008;11.144;2023-03-20T02:45:43;37.28;;;24.35;;
45642;SDS011;31358;46.008;11.144;2023-03-20T02:51:02;41.72;;;24.13;;
45642;SDS011;31358;46.008;11.144;2023-03-20T02:53:58;36.03;;;23.38;;
45642;SDS011;31358;46.008;11.144;2023-03-20T02:59:30;37.88;;;24.77;;
45642;SDS011;31358;46.008;11.144;2023-03-20T03:02:09;33.78;;;21.83;;
45642;SDS011;31358;46.008;11.144;2023-03-20T03:04:42;39.38;;;22.95;;
45642;SDS011;31358;46.008;11.144;2023-03-20T03:07:14;38.07;;;23.90;;
45642;SDS011;31358;46.008;11.144;2023-03-20T03:09:54;37.92;;;23.70;;
45642;SDS011;31358;46.008;11.144;2023-03-20T03:12:28;36.88;;;22.88;;
45642;SDS011;31358;46.008;11.144;2023-03-20T03:15:00;37.42;;;23.98;;
45642;SDS011;31358;46.008;11.144;2023-03-20T03:17:28;34.60;;;23.95;;
45642;SDS011;31358;46.008;11.144;2023-03-20T03:19:59;35.63;;;23.38;;
45642;SDS011;31358;46.008;11.144;2023-03-20T03:22:29;33.35;;;23.35;;
45642;SDS011;31358;46.008;11.144;2023-03-20T03:24:58;38.33;;;23.92;;
45642;SDS011;31358;46.008;11.144;2023-03-20T03:27:25;36.70;;;24.25;;
45642;SDS011;31358;46.008;11.144;2023-03-20T03:30:01;39.22;;;23.45;;
45642;SDS011;31358;46.008;11.144;2023-03-20T03:32:32;35.13;;;22.80;;
45642;SDS011;31358;46.008;11.144;2023-03-20T03:35:00;34.85;;;22.83;;
45642;SDS011;31358;46.008;11.144;2023-03-20T03:40:18;35.30;;;24.17;;
45642;SDS011;31358;46.008;11.144;2023-03-20T03:42:52;37.10;;;23.63;;
45642;SDS011;31358;46.008;11.144;2023-03-20T03:45:24;39.50;;;23.83;;
45642;SDS011;31358;46.008;11.144;2023-03-20T03:48:13;37.25;;;22.80;;
45642;SDS011;31358;46.008;11.144;2023-03-20T03:50:52;39.05;;;23.48;;
45642;SDS011;31358;46.008;11.144;2023-03-20T03:53:27;38.33;;;23.73;;
45642;SDS011;31358;46.008;11.144;2023-03-20T03:55:59;36.65;;;22.75;;
45642;SDS011;31358;46.008;11.144;2023-03-20T03:58:32;40.17;;;25.27;;
45642;SDS011;31358;46.008;11.144;2023-03-20T04:00:59;44.25;;;24.80;;
45642;SDS011;31358;46.008;11.144;2023-03-20T04:03:29;35.80;;;22.85;;
45642;SDS011;31358;46.008;11.144;2023-03-20T04:05:58;41.83;;;23.08;;
45642;SDS011;31358;46.008;11.144;2023-03-20T04:08:25;38.92;;;24.63;;
45642;SDS011;31358;46.008;11.144;2023-03-20T04:10:51;41.22;;;22.83;;
45642;SDS011;31358;46.008;11.144;2023-03-20T04:13:17;34.08;;;22.20;;
45642;SDS011;31358;46.008;11.144;2023-03-20T04:15:42;42.60;;;23.60;;
45642;SDS011;31358;46.008;11.144;2023-03-20T04:18:12;38.83;;;23.83;;
45642;SDS011;31358;46.008;11.144;2023-03-20T04:20:41;40.35;;;24.33;;
45642;SDS011;31358;46.008;11.144;2023-03-20T04:23:07;36.03;;;23.15;;
45642;SDS011;31358;46.008;11.144;2023-03-20T04:25:33;41.67;;;24.67;;
45642;SDS011;31358;46.008;11.144;2023-03-20T04:27:58;38.00;;;23.50;;
45642;SDS011;31358;46.008;11.144;2023-03-20T04:30:24;36.40;;;24.30;;
45642;SDS011;31358;46.008;11.144;2023-03-20T04:32:50;36.97;;;23.70;;
45642;SDS011;31358;46.008;11.144;2023-03-20T04:35:15;39.33;;;25.20;;
45642;SDS011;31358;46.008;11.144;2023-03-20T04:37:41;36.28;;;24.55;;
45642;SDS011;31358;46.008;11.144;2023-03-20T04:40:07;37.72;;;23.30;;
45642;SDS011;31358;46.008;11.144;2023-03-20T04:42:33;39.25;;;23.35;;
45642;SDS011;31358;46.008;11.144;2023-03-20T04:44:59;37.65;;;25.77;;
45642;SDS011;31358;46.008;11.144;2023-03-20T04:47:25;39.92;;;25.10;;
45642;SDS011;31358;46.008;11.144;2023-03-20T04:49:50;41.00;;;25.08;;
45642;SDS011;31358;46.008;11.144;2023-03-20T04:52:16;43.55;;;26.67;;
45642;SDS011;31358;46.008;11.144;2023-03-20T04:54:42;38.70;;;24.98;;
45642;SDS011;31358;46.008;11.144;2023-03-20T04:57:07;39.55;;;24.83;;
45642;SDS011;31358;46.008;11.144;2023-03-20T04:59:33;39.67;;;24.92;;
45642;SDS011;31358;46.008;11.144;2023-03-20T05:01:59;42.83;;;25.70;;
45642;SDS011;31358;46.008;11.144;2023-03-20T05:04:24;44.33;;;25.52;;
45642;SDS011;31358;46.008;11.144;2023-03-20T05:06:50;36.85;;;25.00;;
45642;SDS011;31358;46.008;11.144;2023-03-20T05:09:16;35.67;;;24.23;;
45642;SDS011;31358;46.008;11.144;2023-03-20T05:11:42;36.72;;;24.45;;
45642;SDS011;31358;46.008;11.144;2023-03-20T05:14:07;41.92;;;26.27;;
45642;SDS011;31358;46.008;11.144;2023-03-20T05:16:33;45.20;;;26.85;;
45642;SDS011;31358;46.008;11.144;2023-03-20T05:18:59;38.72;;;25.00;;
45642;SDS011;31358;46.008;11.144;2023-03-20T05:21:25;40.40;;;26.75;;
45642;SDS011;31358;46.008;11.144;2023-03-20T05:23:51;38.70;;;24.83;;
45642;SDS011;31358;46.008;11.144;2023-03-20T05:26:16;37.72;;;23.88;;
45642;SDS011;31358;46.008;11.144;2023-03-20T05:28:42;42.63;;;26.40;;
45642;SDS011;31358;46.008;11.144;2023-03-20T05:31:07;35.92;;;23.60;;
45642;SDS011;31358;46.008;11.144;2023-03-20T05:33:33;41.55;;;26.17;;
45642;SDS011;31358;46.008;11.144;2023-03-20T05:35:59;36.40;;;25.17;;
45642;SDS011;31358;46.008;11.144;2023-03-20T05:38:25;41.90;;;26.00;;
45642;SDS011;31358;46.008;11.144;2023-03-20T05:40:57;41.72;;;25.83;;
45642;SDS011;31358;46.008;11.144;2023-03-20T05:43:24;38.10;;;24.58;;
45642;SDS011;31358;46.008;11.144;2023-03-20T05:45:52;43.67;;;26.10;;
45642;SDS011;31358;46.008;11.144;2023-03-20T05:48:18;39.42;;;25.38;;
45642;SDS011;31358;46.008;11.144;2023-03-20T05:50:43;38.35;;;25.92;;
45642;SDS011;31358;46.008;11.144;2023-03-20T05:53:09;39.40;;;25.65;;
45642;SDS011;31358;46.008;11.144;2023-03-20T05:55:35;43.63;;;26.58;;
45642;SDS011;31358;46.008;11.144;2023-03-20T05:58:00;43.22;;;26.40;;
45642;SDS011;31358;46.008;11.144;2023-03-20T06:00:26;37.72;;;25.85;;
45642;SDS011;31358;46.008;11.144;2023-03-20T06:02:52;40.85;;;25.67;;
45642;SDS011;31358;46.008;11.144;2023-03-20T06:05:17;37.72;;;25.65;;
45642;SDS011;31358;46.008;11.144;2023-03-20T06:07:43;37.67;;;24.13;;
45642;SDS011;31358;46.008;11.144;2023-03-20T06:10:09;40.20;;;26.30;;
45642;SDS011;31358;46.008;11.144;2023-03-20T06:12:35;34.13;;;23.50;;
45642;SDS011;31358;46.008;11.144;2023-03-20T06:15:01;37.03;;;24.05;;
45642;SDS011;31358;46.008;11.144;2023-03-20T06:17:26;42.47;;;24.33;;
45642;SDS011;31358;46.008;11.144;2023-03-20T06:19:52;37.15;;;25.20;;
45642;SDS011;31358;46.008;11.144;2023-03-20T06:22:18;39.25;;;24.63;;
45642;SDS011;31358;46.008;11.144;2023-03-20T06:24:44;40.45;;;24.85;;
45642;SDS011;31358;46.008;11.144;2023-03-20T06:27:10;31.67;;;23.65;;
45642;SDS011;31358;46.008;11.144;2023-03-20T06:29:35;37.72;;;26.25;;
45642;SDS011;31358;46.008;11.144;2023-03-20T06:32:01;38.10;;;25.48;;
45642;SDS011;31358;46.008;11.144;2023-03-20T06:34:27;39.70;;;26.65;;
45642;SDS011;31358;46.008;11.144;2023-03-20T06:36:54;38.53;;;25.58;;
45642;SDS011;31358;46.008;11.144;2023-03-20T06:39:20;36.83;;;24.42;;
45642;SDS011;31358;46.008;11.144;2023-03-20T06:41:46;41.22;;;26.85;;
45642;SDS011;31358;46.008;11.144;2023-03-20T06:44:11;38.78;;;26.52;;
45642;SDS011;31358;46.008;11.144;2023-03-20T06:46:37;40.58;;;26.80;;
45642;SDS011;31358;46.008;11.144;2023-03-20T06:49:03;39.58;;;26.13;;
45642;SDS011;31358;46.008;11.144;2023-03-20T06:51:28;40.88;;;25.85;;
45642;SDS011;31358;46.008;11.144;2023-03-20T06:53:54;38.83;;;25.80;;
45642;SDS011;31358;46.008;11.144;2023-03-20T06:56:20;36.25;;;24.02;;
45642;SDS011;31358;46.008;11.144;2023-03-20T06:58:46;42.28;;;27.05;;
45642;SDS011;31358;46.008;11.144;2023-03-20T07:01:12;39.38;;;25.63;;
45642;SDS011;31358;46.008;11.144;2023-03-20T07:03:40;40.00;;;25.17;;
45642;SDS011;31358;46.008;11.144;2023-03-20T07:06:06;35.15;;;24.17;;
45642;SDS011;31358;46.008;11.144;2023-03-20T07:08:33;42.90;;;25.85;;
45642;SDS011;31358;46.008;11.144;2023-03-20T07:10:59;40.78;;;26.77;;
45642;SDS011;31358;46.008;11.144;2023-03-20T07:13:25;40.25;;;26.20;;
45642;SDS011;31358;46.008;11.144;2023-03-20T07:15:52;37.80;;;24.33;;
45642;SDS011;31358;46.008;11.144;2023-03-20T07:18:18;46.00;;;28.02;;
45642;SDS011;31358;46.008;11.144;2023-03-20T07:20:44;48.20;;;26.73;;
45642;SDS011;31358;46.008;11.144;2023-03-20T07:23:10;42.47;;;27.27;;
45642;SDS011;31358;46.008;11.144;2023-03-20T07:25:36;42.00;;;28.08;;
45642;SDS011;31358;46.008;11.144;2023-03-20T07:28:03;41.58;;;26.10;;
45642;SDS011;31358;46.008;11.144;2023-03-20T07:30:30;40.67;;;26.80;;
45642;SDS011;31358;46.008;11.144;2023-03-20T07:32:56;43.38;;;27.80;;
45642;SDS011;31358;46.008;11.144;2023-03-20T07:35:22;41.88;;;26.52;;
45642;SDS011;31358;46.008;11.144;2023-03-20T07:37:48;44.55;;;27.38;;
45642;SDS011;31358;46.008;11.144;2023-03-20T07:40:14;41.55;;;26.70;;
45642;SDS011;31358;46.008;11.144;2023-03-20T07:42:40;39.72;;;25.42;;
45642;SDS011;31358;46.008;11.144;2023-03-20T07:45:06;40.20;;;25.63;;
45642;SDS011;31358;46.008;11.144;2023-03-20T07:47:33;39.88;;;26.17;;
45642;SDS011;31358;46.008;11.144;2023-03-20T07:49:59;40.13;;;26.10;;
45642;SDS011;31358;46.008;11.144;2023-03-20T07:52:25;44.15;;;28.92;;
45642;SDS011;31358;46.008;11.144;2023-03-20T07:54:50;38.78;;;26.02;;
45642;SDS011;31358;46.008;11.144;2023-03-20T07:57:16;45.00;;;28.65;;
45642;SDS011;31358;46.008;11.144;2023-03-20T07:59:42;42.80;;;28.13;;
45642;SDS011;31358;46.008;11.144;2023-03-20T08:02:11;43.40;;;28.70;;
45642;SDS011;31358;46.008;11.144;2023-03-20T08:04:40;46.97;;;28.75;;
45642;SDS011;31358;46.008;11.144;2023-03-20T08:07:06;42.88;;;28.50;;
45642;SDS011;31358;46.008;11.144;2023-03-20T08:09:31;44.53;;;29.10;;
45642;SDS011;31358;46.008;11.144;2023-03-20T08:11:57;40.20;;;27.35;;
45642;SDS011;31358;46.008;11.144;2023-03-20T08:14:23;44.47;;;29.50;;
45642;SDS011;31358;46.008;11.144;2023-03-20T08:16:48;45.92;;;27.13;;
45642;SDS011;31358;46.008;11.144;2023-03-20T08:19:14;42.95;;;27.50;;
45642;SDS011;31358;46.008;11.144;2023-03-20T08:21:40;44.65;;;27.92;;
45642;SDS011;31358;46.008;11.144;2023-03-20T08:24:05;40.88;;;27.45;;
45642;SDS011;31358;46.008;11.144;2023-03-20T08:26:32;41.53;;;28.35;;
45642;SDS011;31358;46.008;11.144;2023-03-20T08:28:58;51.80;;;33.42;;
45642;SDS011;31358;46.008;11.144;2023-03-20T08:31:24;49.90;;;34.92;;
45642;SDS011;31358;46.008;11.144;2023-03-20T08:33:50;39.13;;;26.38;;
45642;SDS011;31358;46.008;11.144;2023-03-20T08:36:16;41.63;;;26.38;;
45642;SDS011;31358;46.008;11.144;2023-03-20T08:38:44;40.92;;;26.27;;
45642;SDS011;31358;46.008;11.144;2023-03-20T08:41:12;37.88;;;26.35;;
45642;SDS011;31358;46.008;11.144;2023-03-20T08:43:38;41.28;;;27.67;;
45642;SDS011;31358;46.008;11.144;2023-03-20T08:46:04;43.35;;;26.17;;
45642;SDS011;31358;46.008;11.144;2023-03-20T08:48:30;38.30;;;26.30;;
45642;SDS011;31358;46.008;11.144;2023-03-20T08:50:56;43.40;;;26.75;;
45642;SDS011;31358;46.008;11.144;2023-03-20T08:53:22;36.58;;;24.42;;
45642;SDS011;31358;46.008;11.144;2023-03-20T08:55:48;39.03;;;25.60;;
45642;SDS011;31358;46.008;11.144;2023-03-20T08:58:14;36.45;;;25.08;;
45642;SDS011;31358;46.008;11.144;2023-03-20T09:00:40;42.38;;;27.40;;
45642;SDS011;31358;46.008;11.144;2023-03-20T09:03:06;35.58;;;25.38;;
45642;SDS011;31358;46.008;11.144;2023-03-20T09:05:35;37.92;;;27.13;;
45642;SDS011;31358;46.008;11.144;2023-03-20T09:08:01;40.30;;;24.63;;
45642;SDS011;31358;46.008;11.144;2023-03-20T09:10:26;41.60;;;26.08;;
45642;SDS011;31358;46.008;11.144;2023-03-20T09:12:52;37.55;;;25.75;;
45642;SDS011;31358;46.008;11.144;2023-03-20T09:15:18;40.60;;;26.25;;
45642;SDS011;31358;46.008;11.144;2023-03-20T09:17:43;39.30;;;25.48;;
45642;SDS011;31358;46.008;11.144;2023-03-20T09:20:09;39.47;;;27.00;;
45642;SDS011;31358;46.008;11.144;2023-03-20T09:22:35;38.75;;;26.63;;
45642;SDS011;31358;46.008;11.144;2023-03-20T09:25:01;41.85;;;27.65;;
45642;SDS011;31358;46.008;11.144;2023-03-20T09:27:27;36.20;;;26.88;;
45642;SDS011;31358;46.008;11.144;2023-03-20T09:29:53;41.67;;;27.17;;
45642;SDS011;31358;46.008;11.144;2023-03-20T09:32:18;42.75;;;26.92;;
45642;SDS011;31358;46.008;11.144;2023-03-20T09:34:44;41.63;;;25.77;;
45642;SDS011;31358;46.008;11.144;2023-03-20T09:37:10;36.88;;;27.17;;
45642;SDS011;31358;46.008;11.144;2023-03-20T09:39:35;37.92;;;26.98;;
45642;SDS011;31358;46.008;11.144;2023-03-20T09:47:54;37.35;;;26.83;;
45642;SDS011;31358;46.008;11.144;2023-03-20T09:50:33;38.13;;;24.88;;
45642;SDS011;31358;46.008;11.144;2023-03-20T09:53:12;37.33;;;24.88;;
45642;SDS011;31358;46.008;11.144;2023-03-20T09:55:41;34.70;;;24.10;;
45642;SDS011;31358;46.008;11.144;2023-03-20T09:58:22;37.80;;;25.10;;
45642;SDS011;31358;46.008;11.144;2023-03-20T10:00:51;40.97;;;25.55;;
45642;SDS011;31358;46.008;11.144;2023-03-20T10:06:03;36.38;;;24.15;;
45642;SDS011;31358;46.008;11.144;2023-03-20T10:08:32;35.03;;;24.67;;
45642;SDS011;31358;46.008;11.144;2023-03-20T10:11:19;35.88;;;24.85;;
45642;SDS011;31358;46.008;11.144;2023-03-20T10:16:41;35.45;;;25.45;;
45642;SDS011;31358;46.008;11.144;2023-03-20T10:22:39;37.28;;;25.92;;
45642;SDS011;31358;46.008;11.144;2023-03-20T10:27:42;37.75;;;25.55;;
45642;SDS011;31358;46.008;11.144;2023-03-20T10:35:42;36.35;;;24.40;;
45642;SDS011;31358;46.008;11.144;2023-03-20T10:40:51;34.22;;;23.90;;
45642;SDS011;31358;46.008;11.144;2023-03-20T10:43:29;38.08;;;24.02;;
45642;SDS011;31358;46.008;11.144;2023-03-20T10:46:05;34.88;;;24.95;;
45642;SDS011;31358;46.008;11.144;2023-03-20T10:48:48;37.13;;;23.00;;
45642;SDS011;31358;46.008;11.144;2023-03-20T10:51:40;33.42;;;22.42;;
45642;SDS011;31358;46.008;11.144;2023-03-20T10:54:32;34.38;;;23.80;;
45642;SDS011;31358;46.008;11.144;2023-03-20T10:57:05;33.90;;;25.95;;
45642;SDS011;31358;46.008;11.144;2023-03-20T10:59:41;34.03;;;23.45;;
45642;SDS011;31358;46.008;11.144;2023-03-20T11:02:28;85.88;;;61.05;;
45642;SDS011;31358;46.008;11.144;2023-03-20T11:04:57;35.90;;;27.05;;
45642;SDS011;31358;46.008;11.144;2023-03-20T11:07:32;32.45;;;25.05;;
45642;SDS011;31358;46.008;11.144;2023-03-20T11:12:30;33.25;;;22.33;;
45642;SDS011;31358;46.008;11.144;2023-03-20T11:14:58;32.00;;;22.05;;
45642;SDS011;31358;46.008;11.144;2023-03-20T11:17:27;34.00;;;23.02;;
45642;SDS011;31358;46.008;11.144;2023-03-20T11:19:53;30.20;;;21.60;;
45642;SDS011;31358;46.008;11.144;2023-03-20T11:22:28;30.35;;;21.73;;
45642;SDS011;31358;46.008;11.144;2023-03-20T11:24:55;29.20;;;20.83;;
45642;SDS011;31358;46.008;11.144;2023-03-20T11:27:26;29.02;;;21.15;;
45642;SDS011;31358;46.008;11.144;2023-03-20T11:29:53;37.55;;;21.23;;
45642;SDS011;31358;46.008;11.144;2023-03-20T11:32:30;30.02;;;22.25;;
45642;SDS011;31358;46.008;11.144;2023-03-20T11:35:08;29.90;;;20.85;;
45642;SDS011;31358;46.008;11.144;2023-03-20T11:37:35;39.28;;;23.75;;
45642;SDS011;31358;46.008;11.144;2023-03-20T11:43:02;53.00;;;35.50;;
45642;SDS011;31358;46.008;11.144;2023-03-20T11:45:36;51.72;;;32.05;;
45642;SDS011;31358;46.008;11.144;2023-03-20T11:48:05;35.22;;;24.05;;
45642;SDS011;31358;46.008;11.144;2023-03-20T11:50:42;33.65;;;23.52;;
45642;SDS011;31358;46.008;11.144;2023-03-20T11:58:32;25.83;;;18.90;;
45642;SDS011;31358;46.008;11.144;2023-03-20T12:01:00;23.58;;;17.95;;
45642;SDS011;31358;46.008;11.144;2023-03-20T12:06:20;46.63;;;20.55;;
45642;SDS011;31358;46.008;11.144;2023-03-20T12:11:35;27.63;;;19.58;;
45642;SDS011;31358;46.008;11.144;2023-03-20T12:16:54;20.42;;;15.27;;
45642;SDS011;31358;46.008;11.144;2023-03-20T12:19:38;22.38;;;15.63;;
45642;SDS011;31358;46.008;11.144;2023-03-20T12:22:11;27.42;;;17.88;;
45642;SDS011;31358;46.008;11.144;2023-03-20T12:24:48;26.55;;;18.25;;
45642;SDS011;31358;46.008;11.144;2023-03-20T12:27:29;27.73;;;18.50;;
45642;SDS011;31358;46.008;11.144;2023-03-20T12:30:03;23.65;;;17.70;;
45642;SDS011;31358;46.008;11.144;2023-03-20T12:32:40;23.98;;;18.25;;
45642;SDS011;31358;46.008;11.144;2023-03-20T12:35:39;22.58;;;15.27;;
45642;SDS011;31358;46.008;11.144;2023-03-20T12:38:22;24.45;;;17.25;;
45642;SDS011;31358;46.008;11.144;2023-03-20T12:40:54;25.23;;;16.67;;
45642;SDS011;31358;46.008;11.144;2023-03-20T12:46:24;20.00;;;14.95;;
45642;SDS011;31358;46.008;11.144;2023-03-20T12:48:59;20.58;;;13.82;;
45642;SDS011;31358;46.008;11.144;2023-03-20T13:07:20;22.40;;;16.15;;
45642;SDS011;31358;46.008;11.144;2023-03-20T13:10:06;25.45;;;16.70;;
45642;SDS011;31358;46.008;11.144;2023-03-20T13:12:52;20.13;;;14.73;;
45642;SDS011;31358;46.008;11.144;2023-03-20T13:15:48;21.40;;;14.82;;
45642;SDS011;31358;46.008;11.144;2023-03-20T13:21:15;22.65;;;16.63;;
45642;SDS011;31358;46.008;11.144;2023-03-20T13:27:26;24.23;;;15.23;;
45642;SDS011;31358;46.008;11.144;2023-03-20T13:32:19;23.55;;;16.27;;
45642;SDS011;31358;46.008;11.144;2023-03-20T13:43:10;23.00;;;17.50;;
45642;SDS011;31358;46.008;11.144;2023-03-20T13:45:50;22.23;;;16.42;;
45642;SDS011;31358;46.008;11.144;2023-03-20T13:48:33;21.75;;;16.38;;
45642;SDS011;31358;46.008;11.144;2023-03-20T13:51:06;22.10;;;15.95;;
45642;SDS011;31358;46.008;11.144;2023-03-20T14:04:51;24.60;;;16.98;;
45642;SDS011;31358;46.008;11.144;2023-03-20T14:07:29;23.00;;;15.07;;
45642;SDS011;31358;46.008;11.144;2023-03-20T14:10:15;21.80;;;15.82;;
45642;SDS011;31358;46.008;11.144;2023-03-20T14:15:51;22.08;;;16.08;;
45642;SDS011;31358;46.008;11.144;2023-03-20T14:18:20;23.55;;;16.73;;
45642;SDS011;31358;46.008;11.144;2023-03-20T14:20:52;24.45;;;17.15;;
45642;SDS011;31358;46.008;11.144;2023-03-20T14:23:33;24.27;;;16.95;;
45642;SDS011;31358;46.008;11.144;2023-03-20T14:26:19;24.15;;;16.23;;
45642;SDS011;31358;46.008;11.144;2023-03-20T14:28:58;23.98;;;16.55;;
45642;SDS011;31358;46.008;11.144;2023-03-20T14:31:46;22.98;;;16.15;;
45642;SDS011;31358;46.008;11.144;2023-03-20T14:34:14;20.17;;;15.30;;
45642;SDS011;31358;46.008;11.144;2023-03-20T14:39:21;19.58;;;14.23;;
45642;SDS011;31358;46.008;11.144;2023-03-20T14:47:20;23.92;;;16.33;;
45642;SDS011;31358;46.008;11.144;2023-03-20T14:50:04;31.13;;;17.23;;
45642;SDS011;31358;46.008;11.144;2023-03-20T14:55:30;24.98;;;17.45;;
45642;SDS011;31358;46.008;11.144;2023-03-20T14:58:02;22.88;;;15.30;;
45642;SDS011;31358;46.008;11.144;2023-03-20T15:00:35;21.02;;;15.48;;
45642;SDS011;31358;46.008;11.144;2023-03-20T15:03:10;23.63;;;15.35;;
45642;SDS011;31358;46.008;11.144;2023-03-20T15:05:39;22.80;;;15.82;;
45642;SDS011;31358;46.008;11.144;2023-03-20T15:08:15;27.85;;;14.95;;
45642;SDS011;31358;46.008;11.144;2023-03-20T15:10:47;21.75;;;15.30;;
45642;SDS011;31358;46.008;11.144;2023-03-20T15:13:17;20.27;;;14.85;;
45642;SDS011;31358;46.008;11.144;2023-03-20T15:15:54;22.35;;;16.02;;
45642;SDS011;31358;46.008;11.144;2023-03-20T15:18:23;21.30;;;15.98;;
45642;SDS011;31358;46.008;11.144;2023-03-20T15:20:50;23.90;;;15.23;;
45642;SDS011;31358;46.008;11.144;2023-03-20T15:23:17;20.30;;;15.15;;
45642;SDS011;31358;46.008;11.144;2023-03-20T15:25:43;25.30;;;16.33;;
45642;SDS011;31358;46.008;11.144;2023-03-20T15:28:12;24.55;;;17.20;;
45642;SDS011;31358;46.008;11.144;2023-03-20T15:30:48;24.17;;;16.85;;
45642;SDS011;31358;46.008;11.144;2023-03-20T15:33:24;21.25;;;15.10;;
45642;SDS011;31358;46.008;11.144;2023-03-20T15:35:50;24.90;;;17.03;;
45642;SDS011;31358;46.008;11.144;2023-03-20T15:38:16;20.88;;;14.15;;
45642;SDS011;31358;46.008;11.144;2023-03-20T15:40:42;22.98;;;16.38;;
45642;SDS011;31358;46.008;11.144;2023-03-20T15:45:48;20.75;;;14.88;;
45642;SDS011;31358;46.008;11.144;2023-03-20T15:48:19;23.25;;;15.68;;
45642;SDS011;31358;46.008;11.144;2023-03-20T15:50:57;23.98;;;15.90;;
45642;SDS011;31358;46.008;11.144;2023-03-20T15:58:30;27.08;;;17.17;;
45642;SDS011;31358;46.008;11.144;2023-03-20T16:00:56;26.33;;;17.08;;
45642;SDS011;31358;46.008;11.144;2023-03-20T16:03:24;25.88;;;17.88;;
45642;SDS011;31358;46.008;11.144;2023-03-20T16:05:51;27.83;;;17.33;;
45642;SDS011;31358;46.008;11.144;2023-03-20T16:08:23;24.23;;;15.88;;
45642;SDS011;31358;46.008;11.144;2023-03-20T16:11:16;24.88;;;16.77;;
45642;SDS011;31358;46.008;11.144;2023-03-20T16:13:42;34.65;;;17.92;;
45642;SDS011;31358;46.008;11.144;2023-03-20T16:16:13;27.60;;;18.63;;
45642;SDS011;31358;46.008;11.144;2023-03-20T16:18:44;34.22;;;17.52;;
45642;SDS011;31358;46.008;11.144;2023-03-20T16:21:15;27.00;;;18.58;;
45642;SDS011;31358;46.008;11.144;2023-03-20T16:23:47;26.60;;;18.35;;
45642;SDS011;31358;46.008;11.144;2023-03-20T16:26:16;33.17;;;17.25;;
45642;SDS011;31358;46.008;11.144;2023-03-20T16:28:52;31.13;;;16.88;;
45642;SDS011;31358;46.008;11.144;2023-03-20T16:33:52;26.38;;;17.13;;
45642;SDS011;31358;46.008;11.144;2023-03-20T16:36:32;24.17;;;17.55;;
45642;SDS011;31358;46.008;11.144;2023-03-20T16:41:34;23.88;;;16.17;;
45642;SDS011;31358;46.008;11.144;2023-03-20T16:44:13;22.37;;;15.17;;
45642;SDS011;31358;46.008;11.144;2023-03-20T16:51:56;15.50;;;11.52;;
45642;SDS011;31358;46.008;11.144;2023-03-20T16:54:23;17.67;;;12.25;;
45642;SDS011;31358;46.008;11.144;2023-03-20T16:56:55;19.13;;;12.50;;